createdAt,value
2023-01-17T00:01:42.882Z,1.10
2023-01-17T00:04:31.640Z,1.17
2023-01-17T00:07:17.275Z,1.20
2023-01-17T00:09:52.937Z,0.82
2023-01-17T00:12:20.612Z,1.00
2023-01-17T00:14:47.962Z,0.90
2023-01-17T00:17:14.753Z,1.02
2023-01-17T00:20:00.044Z,0.88
2023-01-17T00:22:47.786Z,1.05
2023-01-17T00:25:44.822Z,1.00
2023-01-17T00:28:11.415Z,1.30
2023-01-17T00:30:38.130Z,1.30
2023-01-17T00:33:05.629Z,1.10
2023-01-17T00:35:32.991Z,1.13
2023-01-17T00:38:10.379Z,1.00
2023-01-17T00:40:39.087Z,1.10
2023-01-17T00:43:25.504Z,1.13
2023-01-17T00:46:11.134Z,1.02
2023-01-17T00:48:58.411Z,1.15
2023-01-17T00:51:44.557Z,1.35
2023-01-17T00:54:29.890Z,1.20
2023-01-17T00:57:15.456Z,0.90
2023-01-17T01:00:00.668Z,1.08
2023-01-17T01:02:46.551Z,1.33
2023-01-17T01:05:33.465Z,1.38
2023-01-17T01:08:19.190Z,1.45
2023-01-17T01:11:06.042Z,1.02
2023-01-17T01:13:52.082Z,1.30
2023-01-17T01:16:38.928Z,1.00
2023-01-17T01:19:24.925Z,1.17
2023-01-17T01:22:10.240Z,1.30
2023-01-17T01:24:55.508Z,1.27
2023-01-17T01:27:41.197Z,1.33
2023-01-17T01:30:27.083Z,1.25
2023-01-17T01:33:12.569Z,1.55
2023-01-17T01:35:39.268Z,1.15
2023-01-17T01:38:06.312Z,1.40
2023-01-17T01:40:33.152Z,1.65
2023-01-17T01:43:03.145Z,1.10
2023-01-17T01:45:32.398Z,1.33
2023-01-17T01:48:10.974Z,1.63
2023-01-17T01:53:07.348Z,1.40
2023-01-17T01:55:38.667Z,1.42
2023-01-17T01:58:21.399Z,1.35
2023-01-17T02:00:48.456Z,1.25
2023-01-17T02:03:21.163Z,1.50
2023-01-17T02:05:48.414Z,1.63
2023-01-17T02:08:18.352Z,1.60
2023-01-17T02:10:45.783Z,1.45
2023-01-17T02:13:16.427Z,1.20
2023-01-17T02:16:36.911Z,1.20
2023-01-17T02:19:09.551Z,1.30
2023-01-17T02:21:45.212Z,1.35
2023-01-17T02:24:30.628Z,1.13
2023-01-17T02:27:06.060Z,1.33
2023-01-17T02:29:51.552Z,1.50
2023-01-17T02:32:32.418Z,1.25
2023-01-17T02:35:14.105Z,1.35
2023-01-17T02:37:51.172Z,1.67
2023-01-17T02:40:27.298Z,1.45
2023-01-17T02:42:58.737Z,1.27
2023-01-17T02:45:25.608Z,1.40
2023-01-17T02:47:52.351Z,1.40
2023-01-17T02:50:22.623Z,1.10
2023-01-17T02:53:26.911Z,1.27
2023-01-17T02:56:20.871Z,1.38
2023-01-17T02:59:20.582Z,1.58
2023-01-17T03:02:20.109Z,1.25
2023-01-17T03:04:53.471Z,1.23
2023-01-17T03:07:24.399Z,1.40
2023-01-17T03:09:57.825Z,1.42
2023-01-17T03:12:28.043Z,1.20
2023-01-17T03:14:54.836Z,1.25
2023-01-17T03:17:23.607Z,1.40
2023-01-17T03:19:50.394Z,1.63
2023-01-17T03:22:17.535Z,1.33
2023-01-17T03:24:44.519Z,1.30
2023-01-17T03:27:11.405Z,1.50
2023-01-17T03:29:38.135Z,1.52
2023-01-17T03:32:05.353Z,1.33
2023-01-17T03:34:34.304Z,1.50
2023-01-17T03:37:02.001Z,1.48
2023-01-17T03:39:28.819Z,1.40
2023-01-17T03:41:55.471Z,1.48
2023-01-17T03:44:22.593Z,1.60
2023-01-17T03:46:49.227Z,1.70
2023-01-17T03:49:16.867Z,1.60
2023-01-17T03:51:43.910Z,1.00
2023-01-17T03:54:10.605Z,1.60
2023-01-17T03:56:37.390Z,1.55
2023-01-17T03:59:04.202Z,1.50
2023-01-17T04:01:31.006Z,1.15
2023-01-17T04:03:57.846Z,1.13
2023-01-17T04:06:24.605Z,1.40
2023-01-17T04:08:51.292Z,1.48
2023-01-17T04:11:18.108Z,0.98
2023-01-17T04:13:44.803Z,1.10
2023-01-17T04:16:17.226Z,1.17
2023-01-17T04:18:44.703Z,0.90
2023-01-17T04:21:11.858Z,0.98
2023-01-17T04:23:38.756Z,1.10
2023-01-17T04:26:05.673Z,1.10
2023-01-17T04:28:32.507Z,1.02
2023-01-17T04:31:00.135Z,1.10
2023-01-17T04:33:27.312Z,1.30
2023-01-17T04:35:54.396Z,1.10
2023-01-17T04:38:21.942Z,1.30
2023-01-17T04:40:49.051Z,0.93
2023-01-17T04:43:17.012Z,1.20
2023-01-17T04:45:43.930Z,1.20
2023-01-17T04:48:12.665Z,1.23
2023-01-17T04:50:41.484Z,1.42
2023-01-17T04:53:08.162Z,1.30
2023-01-17T04:55:34.905Z,1.48
2023-01-17T04:58:01.846Z,1.30
2023-01-17T05:00:28.890Z,2.00
2023-01-17T05:02:55.783Z,2.15
2023-01-17T05:05:22.838Z,2.53
2023-01-17T05:07:56.721Z,2.67
2023-01-17T05:10:24.033Z,2.78
2023-01-17T05:12:58.791Z,3.33
2023-01-17T05:15:27.052Z,2.15
2023-01-17T05:17:54.196Z,1.88
2023-01-17T05:20:23.090Z,1.83
2023-01-17T05:22:57.732Z,1.70
2023-01-17T05:25:26.515Z,2.10
2023-01-17T05:27:53.935Z,1.58
2023-01-17T05:30:21.841Z,1.52
2023-01-17T05:32:50.048Z,1.83
2023-01-17T05:35:19.631Z,1.83
2023-01-17T05:37:49.188Z,1.90
2023-01-17T05:40:24.808Z,1.65
2023-01-17T05:42:54.783Z,1.48
2023-01-17T05:45:23.327Z,1.85
2023-01-17T05:47:53.181Z,2.03
2023-01-17T05:50:22.920Z,2.10
2023-01-17T05:52:51.971Z,1.90
2023-01-17T05:55:19.295Z,2.00
2023-01-17T05:57:46.312Z,2.00
2023-01-17T06:00:14.385Z,2.30
2023-01-17T06:02:41.287Z,2.50
2023-01-17T06:05:09.976Z,2.45
2023-01-17T06:07:36.936Z,2.67
2023-01-17T06:10:04.024Z,2.85
2023-01-17T06:12:30.880Z,2.65
2023-01-17T06:14:57.776Z,2.58
2023-01-17T06:17:24.559Z,2.65
2023-01-17T06:19:51.267Z,2.72
2023-01-17T06:22:17.917Z,2.80
2023-01-17T06:24:44.643Z,2.72
2023-01-17T06:27:11.531Z,3.13
2023-01-17T06:29:38.575Z,3.90
2023-01-17T06:32:05.531Z,3.17
2023-01-17T06:34:32.156Z,2.70
2023-01-17T06:36:59.127Z,3.22
2023-01-17T06:39:25.952Z,3.40
2023-01-17T06:41:52.780Z,2.95
2023-01-17T06:44:19.564Z,2.55
2023-01-17T06:46:48.039Z,2.72
2023-01-17T06:49:15.290Z,2.70
2023-01-17T06:51:43.655Z,2.78
2023-01-17T06:54:10.973Z,2.90
2023-01-17T06:56:37.745Z,2.97
2023-01-17T06:59:06.111Z,2.83
2023-01-17T07:01:33.065Z,3.08
2023-01-17T07:03:59.753Z,3.15
2023-01-17T07:06:29.587Z,3.65
2023-01-17T07:08:59.368Z,3.22
2023-01-17T07:11:27.400Z,3.40
2023-01-17T07:13:54.174Z,3.70
2023-01-17T07:16:21.639Z,4.30
2023-01-17T07:18:49.010Z,4.18
2023-01-17T07:21:16.285Z,4.28
2023-01-17T07:23:43.589Z,4.70
2023-01-17T07:26:10.602Z,4.57
2023-01-17T07:28:37.278Z,5.43
2023-01-17T07:31:08.863Z,4.90
2023-01-17T07:33:35.828Z,4.85
2023-01-17T07:36:07.905Z,4.97
2023-01-17T07:41:01.847Z,4.38
2023-01-17T07:43:29.151Z,3.83
2023-01-17T07:45:56.017Z,4.13
2023-01-17T07:48:24.928Z,3.90
2023-01-17T07:50:56.185Z,4.07
2023-01-17T07:53:29.421Z,4.35
2023-01-17T07:56:04.760Z,3.63
2023-01-17T07:58:32.591Z,3.20
2023-01-17T08:01:11.624Z,3.67
2023-01-17T08:03:41.650Z,2.83
2023-01-17T08:06:19.773Z,2.65
2023-01-17T08:08:47.269Z,2.70
2023-01-17T08:11:15.071Z,2.20
2023-01-17T08:13:42.268Z,2.22
2023-01-17T08:16:13.580Z,2.15
2023-01-17T08:18:40.680Z,2.60
2023-01-17T08:21:17.592Z,2.20
2023-01-17T08:23:53.382Z,1.90
2023-01-17T08:26:22.598Z,2.10
2023-01-17T08:28:56.879Z,1.67
2023-01-17T08:31:24.977Z,1.98
2023-01-17T08:33:53.161Z,2.30
2023-01-17T08:36:20.061Z,2.17
2023-01-17T08:38:46.763Z,1.95
2023-01-17T08:41:13.804Z,2.30
2023-01-17T08:43:40.649Z,1.83
2023-01-17T08:46:07.485Z,2.35
2023-01-17T08:48:34.381Z,1.80
2023-01-17T08:51:02.889Z,1.45
2023-01-17T08:53:29.778Z,1.88
2023-01-17T08:56:01.196Z,1.42
2023-01-17T08:58:30.567Z,1.58
2023-01-17T09:01:05.957Z,1.50
2023-01-17T09:03:34.331Z,1.38
2023-01-17T09:06:12.837Z,1.10
2023-01-17T09:08:40.386Z,1.08
2023-01-17T09:11:12.184Z,0.80
2023-01-17T09:13:39.833Z,0.70
2023-01-17T09:16:07.498Z,0.80
2023-01-17T09:18:35.815Z,0.50
2023-01-17T09:21:16.832Z,0.50
2023-01-17T09:23:50.355Z,0.20
2023-01-17T09:26:22.967Z,0.40
2023-01-17T09:28:50.063Z,0.20
2023-01-17T09:31:18.456Z,0.30
2023-01-17T09:33:45.225Z,0.22
2023-01-17T09:36:12.277Z,0.20
2023-01-17T09:38:40.179Z,0.10
2023-01-17T09:41:31.964Z,0.10
2023-01-17T09:44:06.147Z,0.35
2023-01-17T09:46:39.487Z,0.35
2023-01-17T09:49:33.575Z,0.30
2023-01-17T09:52:00.953Z,0.20
2023-01-17T09:54:34.488Z,0.40
2023-01-17T09:57:34.991Z,0.20
2023-01-17T10:00:37.497Z,0.45
2023-01-17T10:03:31.525Z,3.22
2023-01-17T10:06:10.840Z,0.93
2023-01-17T10:09:19.316Z,0.32
2023-01-17T10:12:18.708Z,0.20
2023-01-17T10:15:03.215Z,0.35
2023-01-17T10:20:25.752Z,0.60
2023-01-17T10:23:01.825Z,0.30
2023-01-17T10:25:37.745Z,0.10
2023-01-17T10:28:14.423Z,0.20
2023-01-17T10:30:50.680Z,0.22
2023-01-17T10:33:22.003Z,0.15
2023-01-17T10:35:57.230Z,0.13
2023-01-17T10:38:30.007Z,0.10
2023-01-17T10:41:29.058Z,0.10
2023-01-17T10:44:20.932Z,0.10
2023-01-17T10:46:51.956Z,0.22
2023-01-17T10:49:22.130Z,0.20
2023-01-17T10:52:08.835Z,0.20
2023-01-17T10:54:41.584Z,0.30
2023-01-17T10:57:23.479Z,0.30
2023-01-17T10:59:51.394Z,0.35
2023-01-17T11:02:24.437Z,0.20
2023-01-17T11:04:54.745Z,0.35
2023-01-17T11:07:25.449Z,0.35
2023-01-17T11:09:54.534Z,0.20
2023-01-17T11:12:27.472Z,0.52
2023-01-17T11:15:05.065Z,0.32
2023-01-17T11:17:32.746Z,0.40
2023-01-17T11:20:17.298Z,0.30
2023-01-17T11:22:59.450Z,0.30
2023-01-17T11:25:27.341Z,0.32
2023-01-17T11:28:07.235Z,0.35
2023-01-17T11:30:34.200Z,0.60
2023-01-17T11:33:26.650Z,0.57
2023-01-17T11:35:53.508Z,0.25
2023-01-17T11:38:22.455Z,0.22
2023-01-17T11:40:50.544Z,0.57
2023-01-17T11:43:22.981Z,0.50
2023-01-17T11:46:08.413Z,0.30
2023-01-17T11:48:38.473Z,0.73
2023-01-17T11:51:18.063Z,0.57
2023-01-17T11:53:49.388Z,0.30
2023-01-17T11:56:35.039Z,0.30
2023-01-17T11:59:12.638Z,0.60
2023-01-17T12:01:55.821Z,0.50
2023-01-17T12:04:24.783Z,0.60
2023-01-17T12:07:09.701Z,0.47
2023-01-17T12:09:47.586Z,0.52
2023-01-17T12:12:43.253Z,0.57
2023-01-17T12:15:15.988Z,0.30
2023-01-17T12:18:19.523Z,0.50
2023-01-17T12:21:05.056Z,0.57
2023-01-17T12:23:43.568Z,0.30
2023-01-17T12:26:55.506Z,0.40
2023-01-17T12:29:58.812Z,0.20
2023-01-17T12:32:48.401Z,0.68
2023-01-17T12:35:24.436Z,0.57
2023-01-17T12:38:05.216Z,0.32
2023-01-17T12:40:54.304Z,0.50
2023-01-17T12:43:32.884Z,0.30
2023-01-17T12:46:05.522Z,0.22
2023-01-17T12:48:36.779Z,0.80
2023-01-17T12:51:14.806Z,0.35
2023-01-17T12:53:52.047Z,0.30
2023-01-17T12:56:41.179Z,0.50
2023-01-17T12:59:16.520Z,0.30
2023-01-17T13:01:57.340Z,0.32
2023-01-17T13:04:49.917Z,0.40
2023-01-17T13:07:40.482Z,0.50
2023-01-17T13:10:31.143Z,0.40
2023-01-17T13:13:03.419Z,0.22
2023-01-17T13:15:39.123Z,0.82
2023-01-17T13:18:15.479Z,0.47
2023-01-17T13:21:06.080Z,0.77
2023-01-17T13:23:38.863Z,0.40
2023-01-17T13:26:19.744Z,0.50
2023-01-17T13:28:58.485Z,0.52
2023-01-17T13:31:39.270Z,0.35
2023-01-17T13:34:22.932Z,0.55
2023-01-17T13:37:05.076Z,0.32
2023-01-17T13:39:56.175Z,0.35
2023-01-17T13:42:43.435Z,0.77
2023-01-17T13:45:20.704Z,0.73
2023-01-17T13:47:47.528Z,0.40
2023-01-17T13:50:43.250Z,0.55
2023-01-17T13:53:28.612Z,0.80
2023-01-17T13:56:07.353Z,0.32
2023-01-17T13:58:47.940Z,0.52
2023-01-17T14:01:15.045Z,0.90
2023-01-17T14:03:51.330Z,0.50
2023-01-17T14:06:38.647Z,0.55
2023-01-17T14:09:14.708Z,0.50
2023-01-17T14:12:05.896Z,0.35
2023-01-17T14:14:42.132Z,0.35
2023-01-17T14:17:17.934Z,0.70
2023-01-17T14:19:53.176Z,0.35
2023-01-17T14:22:33.031Z,0.22
2023-01-17T14:25:12.176Z,0.20
2023-01-17T14:28:02.083Z,0.13
2023-01-17T14:30:32.090Z,0.35
2023-01-17T14:32:58.864Z,0.30
2023-01-17T14:35:32.605Z,0.40
2023-01-17T14:38:05.254Z,0.28
2023-01-17T14:40:34.742Z,0.10
2023-01-17T14:43:05.684Z,0.30
2023-01-17T14:45:35.171Z,0.25
2023-01-17T14:48:05.192Z,0.17
2023-01-17T14:50:43.506Z,0.20
2023-01-17T14:53:13.534Z,0.22
2023-01-17T14:55:55.133Z,0.25
2023-01-17T14:58:34.245Z,0.20
2023-01-17T15:01:28.706Z,0.20
2023-01-17T15:03:56.417Z,0.20
2023-01-17T15:06:31.789Z,0.20
2023-01-17T15:09:01.454Z,0.20
2023-01-17T15:11:33.270Z,0.30
2023-01-17T15:14:05.765Z,0.38
2023-01-17T15:16:35.748Z,0.47
2023-01-17T15:19:09.571Z,0.38
2023-01-17T15:21:42.656Z,0.10
2023-01-17T15:24:18.394Z,0.63
2023-01-17T15:26:45.564Z,0.70
2023-01-17T15:29:34.883Z,0.20
2023-01-17T15:32:04.819Z,0.30
2023-01-17T15:34:36.251Z,0.40
2023-01-17T15:37:22.380Z,0.20
2023-01-17T15:39:49.480Z,0.30
2023-01-17T15:42:31.315Z,0.30
2023-01-17T15:45:01.975Z,0.20
2023-01-17T15:47:40.035Z,0.30
2023-01-17T15:50:28.545Z,0.30
2023-01-17T15:53:05.208Z,0.20
2023-01-17T15:55:39.511Z,0.20
2023-01-17T15:58:24.050Z,0.40
2023-01-17T16:00:50.876Z,0.47
2023-01-17T16:03:25.187Z,0.30
2023-01-17T16:05:53.939Z,0.45
2023-01-17T16:08:27.528Z,0.40
2023-01-17T16:11:02.257Z,0.32
2023-01-17T16:13:31.244Z,0.22
2023-01-17T16:16:16.162Z,0.28
2023-01-17T16:18:43.723Z,0.43
2023-01-17T16:21:30.825Z,0.50
2023-01-17T16:23:58.563Z,0.50
2023-01-17T16:26:25.459Z,0.30
2023-01-17T16:28:52.658Z,0.40
2023-01-17T16:31:19.515Z,0.68
2023-01-17T16:33:49.119Z,0.50
2023-01-17T16:36:17.017Z,0.47
2023-01-17T16:38:49.842Z,0.30
2023-01-17T16:41:17.354Z,0.32
2023-01-17T16:43:45.144Z,0.52
2023-01-17T16:46:12.556Z,0.60
2023-01-17T16:48:39.459Z,0.82
2023-01-17T16:51:07.863Z,0.30
2023-01-17T16:53:36.434Z,0.40
2023-01-17T16:56:11.223Z,0.50
2023-01-17T16:58:38.224Z,0.50
2023-01-17T17:01:10.077Z,0.63
2023-01-17T17:06:04.122Z,0.50
2023-01-17T17:08:33.999Z,0.65
2023-01-17T17:11:23.202Z,0.88
2023-01-17T17:13:51.390Z,1.25
2023-01-17T17:16:22.863Z,0.95
2023-01-17T17:19:00.546Z,1.00
2023-01-17T17:21:27.989Z,0.60
2023-01-17T17:23:57.116Z,0.60
2023-01-17T17:26:31.281Z,0.50
2023-01-17T17:28:58.375Z,0.43
2023-01-17T17:31:25.258Z,0.77
2023-01-17T17:33:52.774Z,0.52
2023-01-17T17:36:19.584Z,0.80
2023-01-17T17:38:53.138Z,0.70
2023-01-17T17:41:24.546Z,0.50
2023-01-17T17:43:52.352Z,0.90
2023-01-17T17:46:21.129Z,0.70
2023-01-17T17:48:48.795Z,0.68
2023-01-17T17:51:33.469Z,0.52
2023-01-17T17:56:35.672Z,0.93
2023-01-17T17:59:04.382Z,0.55
2023-01-17T18:01:31.489Z,0.55
2023-01-17T18:04:02.204Z,0.50
2023-01-17T18:06:29.266Z,0.75
2023-01-17T18:08:56.183Z,0.43
2023-01-17T18:11:26.100Z,0.60
2023-01-17T18:13:55.076Z,0.52
2023-01-17T18:16:27.041Z,0.50
2023-01-17T18:21:25.146Z,0.50
2023-01-17T18:23:58.729Z,0.50
2023-01-17T18:26:27.712Z,0.70
2023-01-17T18:28:55.784Z,0.73
2023-01-17T18:31:27.180Z,0.60
2023-01-17T18:33:59.499Z,0.80
2023-01-17T18:36:29.007Z,0.55
2023-01-17T18:38:56.279Z,1.30
2023-01-17T18:41:28.811Z,0.60
2023-01-17T18:43:56.134Z,0.57
2023-01-17T18:46:24.375Z,0.80
2023-01-17T18:48:51.572Z,0.73
2023-01-17T18:51:19.738Z,0.52
2023-01-17T18:53:47.211Z,0.70
2023-01-17T18:56:20.641Z,0.82
2023-01-17T18:58:49.684Z,0.98
2023-01-17T19:01:19.649Z,1.35
2023-01-17T19:03:48.465Z,0.93
2023-01-17T19:06:19.240Z,1.00
2023-01-17T19:08:46.119Z,1.23
2023-01-17T19:11:12.932Z,0.77
2023-01-17T19:13:41.819Z,0.90
2023-01-17T19:16:14.836Z,0.77
2023-01-17T19:18:41.893Z,0.70
2023-01-17T19:21:18.925Z,0.90
2023-01-17T19:23:46.505Z,0.90
2023-01-17T19:26:16.794Z,0.73
2023-01-17T19:28:46.016Z,0.80
2023-01-17T19:31:14.497Z,1.08
2023-01-17T19:33:43.728Z,1.33
2023-01-17T19:36:13.999Z,1.30
2023-01-17T19:38:40.697Z,0.80
2023-01-17T19:41:10.069Z,1.05
2023-01-17T19:43:37.283Z,1.15
2023-01-17T19:46:05.538Z,1.38
2023-01-17T19:48:32.298Z,1.30
2023-01-17T19:51:10.422Z,1.13
2023-01-17T19:53:39.317Z,1.10
2023-01-17T19:56:14.689Z,1.35
2023-01-17T19:58:43.504Z,1.20
2023-01-17T20:01:17.445Z,1.60
2023-01-17T20:03:46.061Z,1.15
2023-01-17T20:06:17.115Z,1.45
2023-01-17T20:08:45.173Z,1.25
2023-01-17T20:11:18.662Z,0.95
2023-01-17T20:13:51.481Z,1.00
2023-01-17T20:16:18.593Z,1.02
2023-01-17T20:18:45.741Z,1.50
2023-01-17T20:21:19.525Z,0.90
2023-01-17T20:23:47.505Z,1.20
2023-01-17T20:26:17.149Z,1.10
2023-01-17T20:28:46.813Z,1.02
2023-01-17T20:31:19.290Z,1.20
2023-01-17T20:33:47.774Z,1.10
2023-01-17T20:36:17.593Z,1.08
2023-01-17T20:38:44.845Z,1.00
2023-01-17T20:41:11.722Z,1.20
2023-01-17T20:43:38.495Z,1.45
2023-01-17T20:46:06.147Z,1.10
2023-01-17T20:48:33.301Z,1.35
2023-01-17T20:51:10.682Z,1.30
2023-01-17T20:53:39.728Z,1.40
2023-01-17T20:56:08.755Z,1.60
2023-01-17T20:58:36.104Z,1.60
2023-01-17T21:01:03.041Z,0.98
2023-01-17T21:03:29.968Z,1.40
2023-01-17T21:06:05.466Z,2.00
2023-01-17T21:08:34.829Z,1.60
2023-01-17T21:11:01.980Z,1.83
2023-01-17T21:13:30.951Z,1.42
2023-01-17T21:15:59.513Z,1.67
2023-01-17T21:18:27.757Z,1.60
2023-01-17T21:20:54.604Z,1.55
2023-01-17T21:23:23.460Z,1.95
2023-01-17T21:25:57.871Z,1.83
2023-01-17T21:28:27.816Z,1.90
2023-01-17T21:30:55.608Z,2.10
2023-01-17T21:33:24.355Z,1.65
2023-01-17T21:35:51.644Z,1.88
2023-01-17T21:38:19.073Z,2.00
2023-01-17T21:40:45.917Z,2.00
2023-01-17T21:43:12.982Z,2.35
2023-01-17T21:45:40.801Z,2.35
2023-01-17T21:48:12.172Z,1.73
2023-01-17T21:50:39.441Z,2.42
2023-01-17T21:53:07.481Z,1.90
2023-01-17T21:55:52.915Z,2.00
2023-01-17T21:58:39.241Z,1.80
2023-01-17T22:01:16.041Z,1.58
2023-01-17T22:03:44.106Z,1.90
2023-01-17T22:06:10.796Z,2.10
2023-01-17T22:08:37.713Z,1.80
2023-01-17T22:11:07.483Z,2.22
2023-01-17T22:13:35.671Z,1.92
2023-01-17T22:16:05.792Z,1.92
2023-01-17T22:18:38.110Z,2.17
2023-01-17T22:21:07.720Z,2.30
2023-01-17T22:23:35.399Z,2.90
2023-01-17T22:26:09.691Z,2.63
2023-01-17T22:28:37.965Z,2.30
2023-01-17T22:31:15.520Z,2.42
2023-01-17T22:33:44.596Z,2.30
2023-01-17T22:36:13.875Z,2.65
2023-01-17T22:38:44.382Z,3.00
2023-01-17T22:41:16.031Z,2.55
2023-01-17T22:43:45.361Z,2.65
2023-01-17T22:46:15.867Z,2.83
2023-01-17T22:48:43.039Z,3.30
2023-01-17T22:51:12.992Z,2.67
2023-01-17T22:53:44.998Z,3.17
2023-01-17T22:56:14.522Z,2.92
2023-01-17T22:58:45.083Z,3.30
2023-01-17T23:01:26.409Z,3.30
2023-01-17T23:03:58.816Z,2.42
2023-01-17T23:06:27.923Z,2.85
2023-01-17T23:08:57.510Z,3.00
2023-01-17T23:11:41.210Z,3.20
2023-01-17T23:14:22.186Z,2.90
2023-01-17T23:17:19.644Z,3.05
2023-01-17T23:19:47.882Z,3.15
2023-01-17T23:22:27.105Z,2.80
2023-01-17T23:24:53.991Z,2.85
2023-01-17T23:27:46.770Z,3.20
2023-01-17T23:30:20.606Z,3.22
2023-01-17T23:32:50.489Z,3.10
2023-01-17T23:35:19.191Z,3.63
2023-01-17T23:38:04.581Z,3.33
2023-01-17T23:40:33.493Z,3.30
2023-01-17T23:43:18.783Z,3.50
2023-01-17T23:45:45.737Z,3.28
2023-01-17T23:48:12.902Z,3.75
2023-01-17T23:50:44.469Z,3.65
2023-01-17T23:53:16.170Z,3.72
2023-01-17T23:55:45.630Z,4.00
2023-01-17T23:58:13.839Z,3.60
